GMFK

Moulay Ali Cherif Airport

Errachidia, Morocco
METAR GMFK 100600Z 24002KT CAVOK 08/00 Q1029 NOSIG
Observed Flight Rules
Dec-10 @ 06:00 UTC (an hour ago) Visual Flight Rules
Wind Visibility Clouds
240° at 2 knots 10,000+ meters
  • Clear skies
Temperatures Readings
Current 8°C / 46°F
Dewpoint 0°C / 32°F
Humidity 57%
Altimeter 30.38" Hg
Pressure 1029 hPa
Elevation 1045
METAR GMFK 100600Z 24002KT CAVOK 08/00 Q1029 NOSIG
Observed Flight Rules
Dec-10 @ 06:00 UTC
(an hour ago)
VFR
Wind Visibility
240° at 2 knots 10,000+ meters
Clouds
  • Clear skies
Temperature Dewpoint
8°C / 46°F 0°C / 32°F
Humidity Altimeter Pressure
57% 30.38" Hg 1029 hPa